Kayford, West Virginia
Current Conditions -  °F | °C
As of 9:54 PM on Saturday 22 Nov 2014 (Local Time) from KCRW Reporting Station
Scattered Clouds Scattered Clouds  
Wind Chill: 47°   Ceiling: Unl
Heat Index: 49°   Visibility: 10mi
Dew Point: 24°   Wind: 5mph
Humidity: 38%   Direction: 160°SSE
Pressure: 30.15"   Gusts: NA
Location:  38.0912°N, 81.4436°W
Report Text: KCRW 230254Z 16004KT 10SM FEW080 SCT100 09/M04 A3015 RMK AO2 SLP214 T00941044 58007
Loading
Personal Weather Stations






























Interactive Weather Map New forecast layout! Learn more

10-Day Weather Forecast

Advertisements
Track Severe Weather on mobile